Time;durP1;ratioP1;P1;durP2;ratioP2;P2;SDS_P1;SDS_P2;PMS_P1;PMS_P2;Temp;Humidity;BMP_temperature;BMP_pressure;BME280_temperature;BME280_humidity;BME280_pressure;Samples;Min_cycle;Max_cycle;Signal;HPM_P1;HPM_P2
2022/04/20 07:58:59;;;;;;;7.68;4.93;;;;;;;12.69;43.88;101556.31;5332957;27;20505;-67
2022/04/20 08:01:31;;;;;;;7.35;4.07;;;;;;;12.86;48.49;101550.34;5301274;28;20585;-66
2022/04/20 08:04:02;;;;;;;7.95;4.72;;;;;;;12.76;44.12;101546.50;5294774;28;20379;-66
2022/04/20 08:06:33;;;;;;;7.03;3.97;;;;;;;13.08;51.19;101552.72;5296547;28;20035;-66
2022/04/20 08:09:05;;;;;;;4.72;3.88;;;;;;;13.07;48.24;101551.88;5300161;28;20059;-66
2022/04/20 08:11:36;;;;;;;6.82;4.15;;;;;;;13.13;44.56;101555.47;5300575;28;20024;-66
2022/04/20 08:14:10;;;;;;;7.75;4.18;;;;;;;13.21;44.93;101552.06;5299772;28;20028;-67
2022/04/20 08:16:43;;;;;;;8.05;4.35;;;;;;;13.20;43.47;101559.56;5300446;28;20055;-67
2022/04/20 08:19:14;;;;;;;7.10;4.60;;;;;;;13.15;42.98;101554.03;5300479;28;20028;-66
2022/04/20 08:21:46;;;;;;;6.40;4.30;;;;;;;13.42;49.85;101550.81;5300401;28;20475;-67
2022/04/20 08:24:17;;;;;;;5.63;4.28;;;;;;;13.43;43.69;101549.69;5292726;28;20024;-67
2022/04/20 08:26:48;;;;;;;9.63;4.00;;;;;;;13.63;44.85;101553.41;5298670;28;20521;-67
2022/04/20 08:29:19;;;;;;;6.50;4.53;;;;;;;13.56;41.34;101548.16;5300724;28;20029;-67
2022/04/20 08:31:54;;;;;;;9.07;4.70;;;;;;;13.62;41.23;101555.34;5300339;28;20386;-67
2022/04/20 08:34:25;;;;;;;6.13;3.88;;;;;;;13.70;42.70;101565.03;5299953;28;20111;-68
2022/04/20 08:36:56;;;;;;;5.93;4.80;;;;;;;13.75;41.46;101562.19;5300520;28;20207;-67
2022/04/20 08:39:27;;;;;;;6.90;5.72;;;;;;;13.85;42.13;101556.50;5300722;28;20077;-67
2022/04/20 08:42:00;;;;;;;7.35;5.10;;;;;;;13.88;42.15;101552.31;5299437;28;20024;-67
2022/04/20 08:44:34;;;;;;;8.25;3.60;;;;;;;14.04;46.32;101550.22;5300301;28;20068;-67
2022/04/20 08:47:07;;;;;;;7.40;4.33;;;;;;;14.11;42.89;101553.44;5300012;28;20031;-65
2022/04/20 08:49:43;;;;;;;5.55;4.38;;;;;;;14.16;41.30;101549.78;5299833;28;20016;-66
2022/04/20 08:55:10;;;;;;;10.82;5.80;;;;;;;14.32;41.24;101549.31;5299294;28;19916;-67
2022/04/20 08:57:46;;;;;;;9.77;7.28;;;;;;;14.36;41.66;101544.78;5300164;28;20127;-68
2022/04/20 09:00:21;;;;;;;6.95;4.70;;;;;;;14.47;44.34;101539.91;5299910;28;20041;-69
2022/04/20 09:02:58;;;;;;;8.73;4.78;;;;;;;14.32;39.95;101543.72;5299063;28;20043;-70
2022/04/20 09:05:33;;;;;;;6.32;4.80;;;;;;;14.25;40.26;101540.47;5285984;28;20033;-68
2022/04/20 09:08:10;;;;;;;6.63;4.60;;;;;;;14.46;42.52;101541.03;5299372;28;20035;-68
2022/04/20 09:10:44;;;;;;;6.57;4.90;;;;;;;14.48;40.55;101544.34;5284797;28;20115;-68
2022/04/20 09:13:15;;;;;;;6.63;4.72;;;;;;;14.56;40.16;101545.69;5285967;28;20017;-67
2022/04/20 09:15:50;;;;;;;5.47;4.28;;;;;;;14.68;40.30;101534.09;5284363;28;20414;-67
2022/04/20 09:18:23;;;;;;;7.22;4.90;;;;;;;14.73;40.31;101540.41;5285855;28;20491;-67
2022/04/20 09:21:10;;;;;;;7.32;4.13;;;;;;;14.74;39.01;101539.28;5285384;28;20029;-67
2022/04/20 09:23:41;;;;;;;7.07;4.60;;;;;;;14.81;38.92;101533.34;5284833;28;20024;-66
2022/04/20 09:26:17;;;;;;;5.88;3.55;;;;;;;14.88;39.53;101541.31;5285173;28;20035;-67
2022/04/20 09:29:06;;;;;;;7.13;4.30;;;;;;;14.96;40.04;101540.66;5285799;28;20491;-67
2022/04/20 09:31:45;;;;;;;5.82;3.60;;;;;;;14.98;38.44;101532.78;5284686;28;20123;-67
2022/04/20 09:34:28;;;;;;;5.72;3.50;;;;;;;14.99;36.44;101526.91;5285208;28;20036;-67
2022/04/20 09:37:26;;;;;;;7.95;4.00;;;;;;;15.10;36.52;101521.97;5283192;28;20763;-67
2022/04/20 09:39:57;;;;;;;5.25;4.07;;;;;;;15.17;37.10;101522.44;5276581;28;20049;-67
2022/04/20 09:42:29;;;;;;;6.45;4.03;;;;;;;15.07;38.81;101514.22;5285335;28;20459;-67
2022/04/20 09:45:06;;;;;;;7.28;3.42;;;;;;;15.05;36.27;101519.28;5283772;28;20028;-67
2022/04/20 09:50:30;;;;;;;6.10;3.80;;;;;;;15.17;37.00;101518.81;5285401;28;20032;-67
2022/04/20 09:53:06;;;;;;;6.22;3.35;;;;;;;15.22;36.60;101515.94;5283205;28;20024;-67
2022/04/20 09:55:39;;;;;;;4.45;2.90;;;;;;;15.31;36.39;101514.09;5282194;28;20070;-67
2022/04/20 09:58:19;;;;;;;6.00;3.55;;;;;;;15.41;36.35;101521.47;5282565;28;20041;-66
2022/04/20 10:00:54;;;;;;;6.47;3.10;;;;;;;15.42;36.14;101517.56;5284155;28;20142;-67
2022/04/20 10:03:28;;;;;;;13.55;10.52;;;;;;;15.40;38.04;101515.06;5283892;28;20099;-66
2022/04/20 10:06:00;;;;;;;18.02;12.45;;;;;;;15.52;37.29;101503.41;5283109;28;20055;-68
2022/04/20 10:08:33;;;;;;;5.80;3.78;;;;;;;15.66;36.25;101504.25;5284367;28;20442;-67
2022/04/20 10:11:05;;;;;;;6.85;3.53;;;;;;;15.47;35.70;101506.28;5284326;28;20028;-69
2022/04/20 10:13:38;;;;;;;8.93;3.25;;;;;;;15.65;35.85;101505.38;5283809;28;20471;-69
2022/04/20 10:16:12;;;;;;;4.28;3.58;;;;;;;15.60;36.11;101502.69;5284447;28;20059;-69
2022/04/20 10:18:47;;;;;;;7.72;4.53;;;;;;;15.62;36.65;101491.19;5284784;28;20463;-69
2022/04/20 10:21:21;;;;;;;4.15;3.30;;;;;;;15.65;36.50;101490.59;5282866;28;20076;-69
2022/04/20 10:23:58;;;;;;;4.22;3.70;;;;;;;15.69;36.85;101491.63;5284202;28;20035;-70
2022/04/20 10:26:29;;;;;;;3.65;3.03;;;;;;;15.78;35.78;101488.97;5283435;28;20044;-69
2022/04/20 10:29:08;;;;;;;11.02;3.45;;;;;;;15.95;35.13;101485.53;5284463;28;20496;-70
2022/04/20 10:32:00;;;;;;;7.20;3.25;;;;;;;15.83;35.46;101486.06;5284390;28;20395;-70
2022/04/20 10:34:33;;;;;;;5.93;3.50;;;;;;;16.02;35.67;101481.19;5283148;28;20028;-69
2022/04/20 10:37:14;;;;;;;9.10;5.93;;;;;;;16.05;35.07;101476.94;5283955;28;20479;-69
2022/04/20 10:39:47;;;;;;;4.55;4.03;;;;;;;16.06;35.06;101479.44;5284152;28;20074;-69
2022/04/20 10:42:20;;;;;;;4.00;2.80;;;;;;;16.00;34.68;101475.09;5283140;28;20498;-69
2022/04/20 10:45:05;;;;;;;8.07;5.35;;;;;;;16.04;35.10;101475.31;5283611;28;20051;-70
2022/04/20 10:47:40;;;;;;;4.95;3.38;;;;;;;16.15;34.74;101473.13;5269875;28;20032;-69
2022/04/20 10:50:28;;;;;;;4.22;3.60;;;;;;;16.30;34.97;101478.38;5284104;28;20534;-69
2022/04/20 10:53:03;;;;;;;10.65;7.18;;;;;;;16.31;34.82;101474.47;5283867;28;20020;-69
2022/04/20 10:55:34;;;;;;;3.90;3.08;;;;;;;16.26;35.38;101471.78;5282970;28;20036;-69
2022/04/20 10:58:17;;;;;;;9.50;6.32;;;;;;;16.25;34.49;101472.91;5282902;28;20526;-69
2022/04/20 11:01:18;;;;;;;3.25;2.92;;;;;;;16.41;35.17;101465.84;5283480;28;20097;-69
2022/04/20 11:04:04;;;;;;;3.60;3.17;;;;;;;16.46;35.72;101467.66;5278376;28;20115;-69
2022/04/20 11:06:58;;;;;;;6.05;2.70;;;;;;;16.55;35.53;101463.00;5283752;28;20024;-68
2022/04/20 11:09:52;;;;;;;5.13;3.08;;;;;;;16.56;34.61;101459.03;5282554;28;20034;-69
2022/04/20 11:18:38;;;;;;;5.28;2.53;;;;;;;16.69;36.29;101443.34;5283048;28;20036;-68
2022/04/20 11:21:16;;;;;;;3.92;3.38;;;;;;;16.73;34.34;101453.59;5283070;28;20383;-68
2022/04/20 11:23:59;;;;;;;4.28;3.33;;;;;;;16.89;34.50;101448.47;5266870;28;20112;-69
2022/04/20 11:26:58;;;;;;;5.70;3.05;;;;;;;16.88;34.02;101440.41;5283227;28;20059;-70
2022/04/20 11:29:30;;;;;;;4.15;3.08;;;;;;;16.93;34.73;101440.28;5282702;28;20044;-70
2022/04/20 11:32:10;;;;;;;5.82;3.25;;;;;;;16.97;33.99;101434.84;5283023;28;20048;-70
2022/04/20 11:34:41;;;;;;;3.20;2.90;;;;;;;16.89;34.33;101428.88;5283080;28;20040;-69
2022/04/20 11:37:13;;;;;;;6.38;3.10;;;;;;;17.04;34.43;101429.63;5282010;28;20475;-70
2022/04/20 11:39:53;;;;;;;4.25;3.05;;;;;;;17.03;33.97;101428.81;5283213;28;20036;-70
2022/04/20 11:42:24;;;;;;;8.20;3.45;;;;;;;17.16;34.01;101425.09;5283263;28;20020;-70
2022/04/20 11:44:56;;;;;;;4.38;2.92;;;;;;;17.12;33.58;101420.44;5297536;28;20050;-68
2022/04/20 11:47:27;;;;;;;4.43;2.60;;;;;;;17.34;33.59;101419.59;5284139;28;20032;-69
2022/04/20 11:50:00;;;;;;;7.40;2.85;;;;;;;17.41;33.07;101416.31;5282523;28;20152;-70
2022/04/20 11:52:31;;;;;;;3.85;2.80;;;;;;;17.38;33.04;101414.97;5282294;28;20110;-71
2022/04/20 11:55:06;;;;;;;6.25;3.05;;;;;;;17.55;34.80;101417.06;5282428;28;20054;-69
2022/04/20 11:57:39;;;;;;;3.85;2.97;;;;;;;17.56;32.68;101408.34;5281842;28;20048;-70
2022/04/20 12:00:11;;;;;;;13.18;9.73;;;;;;;17.64;33.69;101409.53;5282880;28;20107;-69
2022/04/20 12:02:43;;;;;;;4.50;3.30;;;;;;;17.69;33.59;101414.13;5282698;28;20112;-69
2022/04/20 12:05:14;;;;;;;4.63;2.85;;;;;;;17.71;32.28;101409.03;5281830;28;20039;-69
2022/04/20 12:07:45;;;;;;;5.10;3.40;;;;;;;17.75;33.01;101402.44;5282662;28;20463;-69
2022/04/20 12:10:18;;;;;;;3.25;2.85;;;;;;;17.87;33.13;101401.03;5282732;28;20657;-70
2022/04/20 12:12:50;;;;;;;4.75;3.13;;;;;;;17.93;32.65;101396.94;5281711;28;20021;-71
2022/04/20 12:15:22;;;;;;;4.68;2.97;;;;;;;18.01;33.97;101394.13;5282636;28;20104;-70
2022/04/20 12:17:54;;;;;;;4.47;3.25;;;;;;;18.00;32.06;101384.06;5282571;28;20566;-69
2022/04/20 12:20:25;;;;;;;2.67;2.33;;;;;;;18.06;33.35;101387.53;5282056;28;20051;-69
2022/04/20 12:23:04;;;;;;;6.72;3.13;;;;;;;18.31;32.76;101390.72;5282177;28;20024;-68
2022/04/20 12:25:35;;;;;;;5.30;3.65;;;;;;;18.31;33.11;101387.91;5281799;28;20029;-69
2022/04/20 12:31:01;;;;;;;6.47;3.47;;;;;;;18.34;34.35;101371.22;5282503;28;20037;-69
2022/04/20 12:33:32;;;;;;;4.47;3.22;;;;;;;18.39;34.44;101379.50;5281525;28;20025;-68
2022/04/20 12:36:13;;;;;;;5.15;3.28;;;;;;;18.41;32.65;101371.56;5282525;28;20035;-67
2022/04/20 12:38:50;;;;;;;5.43;4.72;;;;;;;18.61;32.43;101372.03;5281990;28;20036;-69
2022/04/20 12:41:42;;;;;;;13.60;10.93;;;;;;;18.50;32.37;101373.53;5281291;28;20033;-69
2022/04/20 12:44:35;;;;;;;6.30;3.85;;;;;;;18.62;32.60;101371.72;5283467;28;20020;-69
2022/04/20 12:47:15;;;;;;;4.68;3.25;;;;;;;18.55;32.00;101365.78;5285532;28;20043;-69
2022/04/20 12:50:00;;;;;;;3.88;3.25;;;;;;;18.43;31.05;101363.66;5286023;28;20068;-72
2022/04/20 12:52:32;;;;;;;6.18;3.45;;;;;;;18.63;32.49;101361.31;5286056;28;20028;-68
2022/04/20 12:55:07;;;;;;;5.70;3.42;;;;;;;18.71;32.86;101352.03;5284862;28;20020;-68
2022/04/20 13:03:36;;;;;;;4.78;3.17;;;;;;;18.90;31.64;101352.53;5286063;28;20096;-69
2022/04/20 13:06:10;;;;;;;5.03;2.85;;;;;;;18.97;31.57;101354.84;5285868;28;20032;-71
2022/04/20 13:08:45;;;;;;;3.80;3.40;;;;;;;18.94;30.98;101338.63;5284944;28;20480;-71
2022/04/20 13:11:17;;;;;;;5.85;3.38;;;;;;;18.91;31.60;101350.53;5285849;28;20036;-69
2022/04/20 13:13:48;;;;;;;4.28;3.65;;;;;;;19.05;31.94;101344.75;5285709;28;20020;-70
2022/04/20 13:16:20;;;;;;;5.22;3.80;;;;;;;19.10;31.84;101336.94;5285201;28;20036;-70
2022/04/20 13:18:53;;;;;;;3.70;3.33;;;;;;;19.21;31.40;101339.38;5285435;28;20024;-69
2022/04/20 13:21:26;;;;;;;9.63;3.25;;;;;;;19.27;32.99;101340.84;5285494;28;20033;-69
2022/04/20 13:23:58;;;;;;;3.90;3.25;;;;;;;19.29;31.36;101341.34;5284872;28;20033;-70
2022/04/20 13:29:19;;;;;;;4.63;2.92;;;;;;;19.37;32.71;101329.22;5284929;28;20033;-70
2022/04/20 13:31:51;;;;;;;7.43;4.05;;;;;;;19.51;31.70;101329.81;5285357;28;20028;-67
2022/04/20 13:34:22;;;;;;;5.53;3.67;;;;;;;19.65;31.41;101323.13;5285206;28;20515;-68
2022/04/20 13:36:53;;;;;;;6.53;4.93;;;;;;;19.74;30.89;101321.94;5284466;28;20112;-68
2022/04/20 13:39:25;;;;;;;6.82;3.50;;;;;;;19.68;32.43;101323.28;5285198;28;20028;-68
2022/04/20 13:41:57;;;;;;;5.43;4.03;;;;;;;19.53;31.21;101319.06;5285167;28;20086;-68
2022/04/20 13:44:28;;;;;;;5.75;3.50;;;;;;;19.83;32.49;101313.44;5283861;28;20028;-68
2022/04/20 13:47:00;;;;;;;8.43;3.83;;;;;;;19.92;32.29;101319.84;5285014;28;20025;-68
2022/04/20 13:49:31;;;;;;;6.13;3.78;;;;;;;19.72;30.68;101309.38;5284914;28;20502;-67
2022/04/20 13:52:03;;;;;;;4.47;3.63;;;;;;;19.99;32.10;101305.19;5283904;28;20037;-68
2022/04/20 13:54:34;;;;;;;4.88;3.22;;;;;;;20.00;30.32;101306.06;5284504;28;20056;-69
2022/04/20 13:57:08;;;;;;;5.70;2.85;;;;;;;20.02;31.18;101304.53;5283954;28;20079;-69
2022/04/20 13:59:42;;;;;;;4.15;2.90;;;;;;;20.25;31.99;101295.72;5284514;28;20100;-69
2022/04/20 14:02:14;;;;;;;9.70;8.43;;;;;;;20.15;30.73;101297.00;5284566;28;20037;-70
2022/04/20 14:04:46;;;;;;;5.78;3.58;;;;;;;20.14;31.00;101304.59;5283723;28;20031;-69
2022/04/20 14:07:18;;;;;;;4.68;3.47;;;;;;;20.21;31.29;101289.97;5284707;28;20028;-69
2022/04/20 14:09:49;;;;;;;5.15;3.20;;;;;;;20.24;30.88;101297.72;5284830;28;20112;-69
2022/04/20 14:12:24;;;;;;;4.13;3.35;;;;;;;20.01;29.86;101293.63;5283974;28;20123;-69
2022/04/20 14:14:59;;;;;;;;;;;;;;;20.53;31.10;101287.50;5285109;28;20024;-69
2022/04/20 14:17:31;;;;;;;9.68;8.75;;;;;;;20.39;30.21;101274.56;5284639;28;19920;-68
2022/04/20 14:20:04;;;;;;;3.67;2.75;;;;;;;20.34;29.76;101274.75;5283511;28;20031;-68
2022/04/20 14:22:35;;;;;;;6.30;3.55;;;;;;;20.39;31.75;101274.56;5284224;28;20048;-68
2022/04/20 14:33:37;;;;;;;4.72;3.75;;;;;;;20.12;29.77;101275.97;5282556;28;20115;-68
2022/04/20 14:36:09;;;;;;;6.22;4.20;;;;;;;20.29;30.19;101272.16;5281709;28;20119;-68
2022/04/20 14:38:40;;;;;;;6.03;3.10;;;;;;;20.20;31.43;101272.25;5282558;28;20032;-70
2022/04/20 14:41:13;;;;;;;4.82;3.92;;;;;;;20.09;30.01;101264.56;5282397;28;20092;-69
2022/04/20 14:43:44;;;;;;;8.43;2.88;;;;;;;20.06;30.95;101265.25;5283592;28;20031;-68
2022/04/20 14:46:17;;;;;;;3.50;3.20;;;;;;;19.94;31.51;101266.84;5281316;28;20119;-68
2022/04/20 14:48:48;;;;;;;15.25;11.20;;;;;;;19.87;30.78;101263.75;5283651;28;20433;-67
2022/04/20 14:51:21;;;;;;;5.35;3.63;;;;;;;19.67;31.12;101262.56;5283834;28;20020;-67
2022/04/20 14:53:53;;;;;;;4.15;2.90;;;;;;;19.73;31.13;101269.63;5283292;28;20074;-66
2022/04/20 14:56:24;;;;;;;4.28;3.55;;;;;;;19.54;31.50;101267.25;5283423;28;20028;-67
2022/04/20 14:58:59;;;;;;;4.65;3.33;;;;;;;19.60;31.61;101264.25;5283070;28;20075;-68
2022/04/20 15:01:30;;;;;;;11.73;7.88;;;;;;;19.64;31.98;101259.59;5282314;28;20161;-68
2022/04/20 15:04:03;;;;;;;11.88;7.80;;;;;;;19.59;32.29;101262.59;5283314;28;20040;-68
2022/04/20 15:06:34;;;;;;;7.82;3.60;;;;;;;19.49;31.97;101259.00;5283125;28;20094;-68
2022/04/20 15:09:08;;;;;;;5.07;3.42;;;;;;;19.49;32.43;101252.56;5282849;28;20142;-68
2022/04/20 15:11:40;;;;;;;3.67;3.03;;;;;;;19.45;32.49;101251.59;5283138;28;20129;-68
2022/04/20 15:14:12;;;;;;;5.13;3.70;;;;;;;19.42;32.95;101264.34;5282868;28;20101;-68
2022/04/20 15:16:45;;;;;;;5.28;3.03;;;;;;;19.48;32.44;101262.16;5282848;28;20029;-68
2022/04/20 15:19:17;;;;;;;5.07;3.33;;;;;;;19.55;32.27;101257.63;5283002;28;20028;-68
2022/04/20 15:21:49;;;;;;;8.48;4.70;;;;;;;19.50;33.00;101257.84;5282275;28;20467;-68
2022/04/20 15:24:20;;;;;;;11.95;4.00;;;;;;;19.52;33.05;101258.31;5282029;28;20039;-71
2022/04/20 15:26:51;;;;;;;11.20;3.97;;;;;;;19.46;33.44;101254.06;5282108;28;20028;-70
2022/04/20 15:29:23;;;;;;;8.13;4.47;;;;;;;19.35;33.27;101255.59;5282646;28;20052;-66
2022/04/20 15:31:56;;;;;;;6.68;3.13;;;;;;;19.36;33.61;101248.84;5283012;28;20101;-66
2022/04/20 15:34:34;;;;;;;6.68;4.10;;;;;;;19.08;32.92;101248.50;5282921;28;20032;-67
2022/04/20 15:37:05;;;;;;;10.50;6.28;;;;;;;19.19;32.96;101246.13;5281239;28;20020;-66
2022/04/20 15:39:37;;;;;;;4.75;3.30;;;;;;;19.33;33.08;101243.91;5281614;28;20024;-72
2022/04/20 15:42:08;;;;;;;8.55;4.05;;;;;;;19.37;33.99;101236.41;5281980;28;20410;-71
2022/04/20 15:44:39;;;;;;;4.18;3.78;;;;;;;19.46;33.60;101242.00;5280819;28;20024;-74
2022/04/20 15:47:11;;;;;;;4.70;4.25;;;;;;;19.35;34.48;101249.97;5282150;28;20074;-68
2022/04/20 15:49:42;;;;;;;5.55;3.83;;;;;;;19.45;34.31;101238.34;5282097;28;20035;-69
2022/04/20 15:52:18;;;;;;;6.45;3.40;;;;;;;19.24;34.89;101245.94;5282833;28;20086;-69
2022/04/20 16:00:13;;;;;;;;;;;;;;;19.52;34.19;101241.44;5282454;28;20530;-68
2022/04/20 16:00:33;;;;;;;6.47;4.32;;;;;;;19.45;34.31;101234.72;5282315;28;20471;-71
2022/04/20 16:03:07;;;;;;;4.40;3.80;;;;;;;19.58;34.48;101246.88;5281441;28;20032;-72
2022/04/20 16:05:38;;;;;;;7.10;4.45;;;;;;;19.56;34.58;101244.41;5281645;28;20489;-72
2022/04/20 16:08:11;;;;;;;7.15;6.45;;;;;;;19.33;34.47;101243.91;5282734;28;20020;-73
2022/04/20 16:10:42;;;;;;;12.75;7.40;;;;;;;19.43;35.39;101237.03;5282230;28;20526;-72
2022/04/20 16:13:17;;;;;;;4.28;3.85;;;;;;;19.39;34.34;101236.09;5283069;28;20063;-73
2022/04/20 16:15:49;;;;;;;9.13;3.65;;;;;;;19.30;33.68;101238.94;5282705;28;20029;-74
2022/04/20 16:18:21;;;;;;;6.85;4.50;;;;;;;19.32;34.27;101239.41;5282073;28;20035;-72
2022/04/20 16:20:52;;;;;;;19.55;16.30;;;;;;;19.15;34.46;101236.69;5286641;28;20029;-70
2022/04/20 16:23:24;;;;;;;4.93;4.43;;;;;;;19.06;34.64;101233.94;5286738;28;20029;-72
2022/04/20 16:25:55;;;;;;;5.72;5.15;;;;;;;19.19;36.04;101230.06;5286235;28;20437;-72
2022/04/20 16:28:30;;;;;;;6.00;4.57;;;;;;;19.18;34.39;101233.22;5286973;28;20029;-72
2022/04/20 16:31:03;;;;;;;8.18;4.50;;;;;;;19.08;34.38;101234.44;5293986;28;20028;-71
2022/04/20 16:33:34;;;;;;;5.55;3.92;;;;;;;19.23;35.13;101233.03;5285712;28;20017;-71
2022/04/20 16:36:05;;;;;;;3.90;3.50;;;;;;;19.22;34.56;101231.38;5286440;28;20028;-71
2022/04/20 16:38:38;;;;;;;5.43;4.03;;;;;;;19.11;34.88;101231.75;5285949;28;20394;-71
2022/04/20 16:41:09;;;;;;;5.80;4.43;;;;;;;19.26;34.46;101230.38;5286511;28;20426;-72
2022/04/20 16:43:40;;;;;;;4.57;3.80;;;;;;;19.34;35.47;101223.03;5286179;28;20024;-70
2022/04/20 16:46:12;;;;;;;6.53;3.47;;;;;;;19.29;34.90;101220.44;5285660;28;20025;-70
2022/04/20 16:48:43;;;;;;;6.07;3.75;;;;;;;19.28;35.64;101215.97;5286778;28;20044;-69
2022/04/20 16:51:14;;;;;;;5.90;3.40;;;;;;;19.21;34.96;101221.31;5285936;28;20032;-70
2022/04/20 16:53:45;;;;;;;7.32;3.47;;;;;;;19.49;34.45;101218.81;5285507;28;20567;-71
2022/04/20 16:56:17;;;;;;;5.65;3.20;;;;;;;19.55;34.17;101223.06;5286125;28;20052;-70
2022/04/20 16:58:49;;;;;;;5.53;3.35;;;;;;;19.39;34.43;101220.03;5279676;28;20044;-70
2022/04/20 17:01:21;;;;;;;5.28;3.45;;;;;;;19.52;35.27;101224.56;5285100;28;20544;-70
2022/04/20 17:03:52;;;;;;;5.78;3.45;;;;;;;19.38;35.11;101234.41;5285778;28;20025;-70
2022/04/20 17:06:24;;;;;;;3.83;3.53;;;;;;;19.22;34.50;101237.81;5285652;28;20111;-70
2022/04/20 17:08:55;;;;;;;4.35;3.95;;;;;;;19.31;34.62;101240.59;5285014;28;20032;-70
2022/04/20 17:11:28;;;;;;;5.80;5.20;;;;;;;19.18;35.07;101230.41;5285653;28;20553;-70
2022/04/20 17:14:01;;;;;;;5.03;3.20;;;;;;;19.17;35.13;101243.63;5285003;28;20417;-70
2022/04/20 17:16:32;;;;;;;5.35;4.10;;;;;;;19.09;35.85;101234.06;5284583;28;20024;-70
2022/04/20 17:19:03;;;;;;;5.68;3.65;;;;;;;18.72;35.21;101224.47;5285539;28;20055;-70
2022/04/20 17:27:14;;;;;;;3.95;3.33;;;;;;;18.38;35.96;101211.34;5285456;28;20068;-70
2022/04/20 17:29:47;;;;;;;3.72;3.20;;;;;;;18.24;36.30;101212.34;5284277;28;20048;-70
